sensor_id;sensor_type;location;lat;lon;timestamp;temperature;humidity
8338;DHT22;4206;48.634;9.516;2022-09-02T00:00:47;15.30;99.90
8338;DHT22;4206;48.634;9.516;2022-09-02T00:03:14;15.30;99.90
8338;DHT22;4206;48.634;9.516;2022-09-02T00:05:40;15.20;99.90
8338;DHT22;4206;48.634;9.516;2022-09-02T00:08:07;15.20;99.90
8338;DHT22;4206;48.634;9.516;2022-09-02T00:10:35;15.20;99.90
8338;DHT22;4206;48.634;9.516;2022-09-02T00:13:02;15.20;99.90
8338;DHT22;4206;48.634;9.516;2022-09-02T00:15:28;15.20;99.90
8338;DHT22;4206;48.634;9.516;2022-09-02T00:17:54;15.10;99.90
8338;DHT22;4206;48.634;9.516;2022-09-02T00:20:20;15.20;99.90
8338;DHT22;4206;48.634;9.516;2022-09-02T00:22:46;15.10;99.90
8338;DHT22;4206;48.634;9.516;2022-09-02T00:25:11;15.10;99.90
8338;DHT22;4206;48.634;9.516;2022-09-02T00:27:37;15.00;99.90
8338;DHT22;4206;48.634;9.516;2022-09-02T00:30:04;14.90;99.90
8338;DHT22;4206;48.634;9.516;2022-09-02T00:32:30;14.90;99.90
8338;DHT22;4206;48.634;9.516;2022-09-02T00:34:56;14.90;99.90
8338;DHT22;4206;48.634;9.516;2022-09-02T00:37:24;14.80;99.90
8338;DHT22;4206;48.634;9.516;2022-09-02T00:39:51;14.90;99.90
8338;DHT22;4206;48.634;9.516;2022-09-02T00:42:18;14.90;99.90
8338;DHT22;4206;48.634;9.516;2022-09-02T00:44:44;14.90;99.90
8338;DHT22;4206;48.634;9.516;2022-09-02T00:47:09;14.90;99.90
8338;DHT22;4206;48.634;9.516;2022-09-02T00:49:38;14.90;99.90
8338;DHT22;4206;48.634;9.516;2022-09-02T00:52:08;14.90;99.90
8338;DHT22;4206;48.634;9.516;2022-09-02T00:54:40;14.90;99.90
8338;DHT22;4206;48.634;9.516;2022-09-02T00:57:11;14.90;99.90
8338;DHT22;4206;48.634;9.516;2022-09-02T00:59:47;15.00;99.90
8338;DHT22;4206;48.634;9.516;2022-09-02T01:02:15;15.00;99.90
8338;DHT22;4206;48.634;9.516;2022-09-02T01:04:42;14.90;99.90
8338;DHT22;4206;48.634;9.516;2022-09-02T01:07:11;14.80;99.90
8338;DHT22;4206;48.634;9.516;2022-09-02T01:09:37;14.90;99.90
8338;DHT22;4206;48.634;9.516;2022-09-02T01:12:03;14.90;99.90
8338;DHT22;4206;48.634;9.516;2022-09-02T01:14:30;14.90;99.90
8338;DHT22;4206;48.634;9.516;2022-09-02T01:16:58;14.90;99.90
8338;DHT22;4206;48.634;9.516;2022-09-02T01:19:29;14.80;99.90
8338;DHT22;4206;48.634;9.516;2022-09-02T01:21:57;14.80;99.90
8338;DHT22;4206;48.634;9.516;2022-09-02T01:24:26;14.80;99.90
8338;DHT22;4206;48.634;9.516;2022-09-02T01:26:54;14.90;99.90
8338;DHT22;4206;48.634;9.516;2022-09-02T01:29:21;14.90;99.90
8338;DHT22;4206;48.634;9.516;2022-09-02T01:31:47;14.90;99.90
8338;DHT22;4206;48.634;9.516;2022-09-02T01:34:13;14.80;99.90
8338;DHT22;4206;48.634;9.516;2022-09-02T01:36:40;14.90;99.90
8338;DHT22;4206;48.634;9.516;2022-09-02T01:39:08;14.90;99.90
8338;DHT22;4206;48.634;9.516;2022-09-02T01:41:34;14.80;99.90
8338;DHT22;4206;48.634;9.516;2022-09-02T01:44:00;14.80;99.90
8338;DHT22;4206;48.634;9.516;2022-09-02T01:46:26;14.80;99.90
8338;DHT22;4206;48.634;9.516;2022-09-02T01:48:52;14.90;99.90
8338;DHT22;4206;48.634;9.516;2022-09-02T01:51:19;14.80;99.90
8338;DHT22;4206;48.634;9.516;2022-09-02T01:53:46;14.80;99.90
8338;DHT22;4206;48.634;9.516;2022-09-02T01:56:13;14.80;99.90
8338;DHT22;4206;48.634;9.516;2022-09-02T01:58:39;14.80;99.90
8338;DHT22;4206;48.634;9.516;2022-09-02T02:01:05;14.80;99.90
8338;DHT22;4206;48.634;9.516;2022-09-02T02:03:32;14.70;99.90
8338;DHT22;4206;48.634;9.516;2022-09-02T02:06:01;14.70;99.90
8338;DHT22;4206;48.634;9.516;2022-09-02T02:08:27;14.60;99.90
8338;DHT22;4206;48.634;9.516;2022-09-02T02:10:52;14.60;99.90
8338;DHT22;4206;48.634;9.516;2022-09-02T02:13:18;14.50;99.90
8338;DHT22;4206;48.634;9.516;2022-09-02T02:15:44;14.30;99.90
8338;DHT22;4206;48.634;9.516;2022-09-02T02:18:11;14.30;99.90
8338;DHT22;4206;48.634;9.516;2022-09-02T02:20:37;14.10;99.90
8338;DHT22;4206;48.634;9.516;2022-09-02T02:23:04;14.00;99.90
8338;DHT22;4206;48.634;9.516;2022-09-02T02:25:30;13.90;99.90
8338;DHT22;4206;48.634;9.516;2022-09-02T02:27:56;13.80;99.90
8338;DHT22;4206;48.634;9.516;2022-09-02T02:30:22;13.70;99.90
8338;DHT22;4206;48.634;9.516;2022-09-02T02:32:48;13.60;99.90
8338;DHT22;4206;48.634;9.516;2022-09-02T02:35:15;13.50;99.90
8338;DHT22;4206;48.634;9.516;2022-09-02T02:37:42;13.50;99.90
8338;DHT22;4206;48.634;9.516;2022-09-02T02:40:08;13.50;99.90
8338;DHT22;4206;48.634;9.516;2022-09-02T02:42:36;13.50;99.90
8338;DHT22;4206;48.634;9.516;2022-09-02T02:45:03;13.50;99.90
8338;DHT22;4206;48.634;9.516;2022-09-02T02:47:40;13.40;99.90
8338;DHT22;4206;48.634;9.516;2022-09-02T02:50:09;13.40;99.90
8338;DHT22;4206;48.634;9.516;2022-09-02T02:52:36;13.30;99.90
8338;DHT22;4206;48.634;9.516;2022-09-02T02:55:02;13.20;99.90
8338;DHT22;4206;48.634;9.516;2022-09-02T02:57:28;13.20;99.90
8338;DHT22;4206;48.634;9.516;2022-09-02T02:59:53;13.20;99.90
8338;DHT22;4206;48.634;9.516;2022-09-02T03:02:19;13.20;99.90
8338;DHT22;4206;48.634;9.516;2022-09-02T03:04:45;13.20;99.90
8338;DHT22;4206;48.634;9.516;2022-09-02T03:07:10;13.20;99.90
8338;DHT22;4206;48.634;9.516;2022-09-02T03:09:36;13.10;99.90
8338;DHT22;4206;48.634;9.516;2022-09-02T03:12:02;13.10;99.90
8338;DHT22;4206;48.634;9.516;2022-09-02T03:14:28;13.10;99.90
8338;DHT22;4206;48.634;9.516;2022-09-02T03:16:53;13.10;99.90
8338;DHT22;4206;48.634;9.516;2022-09-02T03:19:19;13.10;99.90
8338;DHT22;4206;48.634;9.516;2022-09-02T03:21:45;13.10;99.90
8338;DHT22;4206;48.634;9.516;2022-09-02T03:24:10;13.10;99.90
8338;DHT22;4206;48.634;9.516;2022-09-02T03:26:37;13.20;99.90
8338;DHT22;4206;48.634;9.516;2022-09-02T03:29:03;13.20;99.90
8338;DHT22;4206;48.634;9.516;2022-09-02T03:31:29;13.20;99.90
8338;DHT22;4206;48.634;9.516;2022-09-02T03:33:55;13.20;99.90
8338;DHT22;4206;48.634;9.516;2022-09-02T03:36:25;13.20;99.90
8338;DHT22;4206;48.634;9.516;2022-09-02T03:38:52;13.10;99.90
8338;DHT22;4206;48.634;9.516;2022-09-02T03:41:17;13.10;99.90
8338;DHT22;4206;48.634;9.516;2022-09-02T03:43:43;13.00;99.90
8338;DHT22;4206;48.634;9.516;2022-09-02T03:46:09;12.90;99.90
8338;DHT22;4206;48.634;9.516;2022-09-02T03:48:35;12.80;99.90
8338;DHT22;4206;48.634;9.516;2022-09-02T03:51:01;12.80;99.90
8338;DHT22;4206;48.634;9.516;2022-09-02T03:53:27;12.80;99.90
8338;DHT22;4206;48.634;9.516;2022-09-02T03:55:53;12.80;99.90
8338;DHT22;4206;48.634;9.516;2022-09-02T03:58:19;12.80;99.90
8338;DHT22;4206;48.634;9.516;2022-09-02T04:00:52;12.80;99.90
8338;DHT22;4206;48.634;9.516;2022-09-02T04:03:18;12.80;99.90
8338;DHT22;4206;48.634;9.516;2022-09-02T04:05:46;13.00;99.90
8338;DHT22;4206;48.634;9.516;2022-09-02T04:08:12;13.00;99.90
8338;DHT22;4206;48.634;9.516;2022-09-02T04:10:38;13.00;99.90
8338;DHT22;4206;48.634;9.516;2022-09-02T04:13:04;13.00;99.90
8338;DHT22;4206;48.634;9.516;2022-09-02T04:15:29;12.90;99.90
8338;DHT22;4206;48.634;9.516;2022-09-02T04:21:24;12.80;99.90
8338;DHT22;4206;48.634;9.516;2022-09-02T04:23:49;12.70;99.90
8338;DHT22;4206;48.634;9.516;2022-09-02T04:26:18;12.60;99.90
8338;DHT22;4206;48.634;9.516;2022-09-02T04:28:45;12.60;99.90
8338;DHT22;4206;48.634;9.516;2022-09-02T04:31:13;12.50;99.90
8338;DHT22;4206;48.634;9.516;2022-09-02T04:33:39;12.50;99.90
8338;DHT22;4206;48.634;9.516;2022-09-02T04:36:07;12.50;99.90
8338;DHT22;4206;48.634;9.516;2022-09-02T04:38:33;12.40;99.90
8338;DHT22;4206;48.634;9.516;2022-09-02T04:40:59;12.40;99.90
8338;DHT22;4206;48.634;9.516;2022-09-02T04:43:26;12.40;99.90
8338;DHT22;4206;48.634;9.516;2022-09-02T04:45:51;12.50;99.90
8338;DHT22;4206;48.634;9.516;2022-09-02T04:48:17;12.50;99.90
8338;DHT22;4206;48.634;9.516;2022-09-02T04:50:44;12.50;99.90
8338;DHT22;4206;48.634;9.516;2022-09-02T04:53:11;12.40;99.90
8338;DHT22;4206;48.634;9.516;2022-09-02T04:55:39;12.40;99.90
8338;DHT22;4206;48.634;9.516;2022-09-02T04:58:05;12.40;99.90
8338;DHT22;4206;48.634;9.516;2022-09-02T05:00:31;12.30;99.90
8338;DHT22;4206;48.634;9.516;2022-09-02T05:02:57;12.30;99.90
8338;DHT22;4206;48.634;9.516;2022-09-02T05:05:23;12.30;99.90
8338;DHT22;4206;48.634;9.516;2022-09-02T05:07:48;12.20;99.90
8338;DHT22;4206;48.634;9.516;2022-09-02T05:10:14;12.30;99.90
8338;DHT22;4206;48.634;9.516;2022-09-02T05:12:40;12.20;99.90
8338;DHT22;4206;48.634;9.516;2022-09-02T05:15:07;12.20;99.90
8338;DHT22;4206;48.634;9.516;2022-09-02T05:17:34;12.20;99.90
8338;DHT22;4206;48.634;9.516;2022-09-02T05:20:03;12.20;99.90
8338;DHT22;4206;48.634;9.516;2022-09-02T05:22:29;12.20;99.90
8338;DHT22;4206;48.634;9.516;2022-09-02T05:24:55;12.30;99.90
8338;DHT22;4206;48.634;9.516;2022-09-02T05:27:21;12.50;99.90
8338;DHT22;4206;48.634;9.516;2022-09-02T05:29:48;12.60;99.90
8338;DHT22;4206;48.634;9.516;2022-09-02T05:32:14;12.60;99.90
8338;DHT22;4206;48.634;9.516;2022-09-02T05:34:39;12.70;99.90
8338;DHT22;4206;48.634;9.516;2022-09-02T05:37:05;12.70;99.90
8338;DHT22;4206;48.634;9.516;2022-09-02T05:39:31;12.80;99.90
8338;DHT22;4206;48.634;9.516;2022-09-02T05:41:57;12.90;99.90
8338;DHT22;4206;48.634;9.516;2022-09-02T05:44:23;13.10;99.90
8338;DHT22;4206;48.634;9.516;2022-09-02T05:46:49;13.20;99.90
8338;DHT22;4206;48.634;9.516;2022-09-02T05:49:15;13.30;99.90
8338;DHT22;4206;48.634;9.516;2022-09-02T05:51:48;13.40;99.90
8338;DHT22;4206;48.634;9.516;2022-09-02T05:54:27;13.60;99.90
8338;DHT22;4206;48.634;9.516;2022-09-02T05:56:57;13.80;99.90
8338;DHT22;4206;48.634;9.516;2022-09-02T05:59:26;14.00;99.90
8338;DHT22;4206;48.634;9.516;2022-09-02T06:01:53;14.20;99.90
8338;DHT22;4206;48.634;9.516;2022-09-02T06:04:19;14.40;99.90
8338;DHT22;4206;48.634;9.516;2022-09-02T06:06:46;14.50;99.90
8338;DHT22;4206;48.634;9.516;2022-09-02T06:09:14;14.70;99.90
8338;DHT22;4206;48.634;9.516;2022-09-02T06:11:42;14.80;99.90
8338;DHT22;4206;48.634;9.516;2022-09-02T06:14:10;15.00;99.90
8338;DHT22;4206;48.634;9.516;2022-09-02T06:16:39;15.20;99.90
8338;DHT22;4206;48.634;9.516;2022-09-02T06:19:05;15.50;99.90
8338;DHT22;4206;48.634;9.516;2022-09-02T06:21:32;15.60;99.90
8338;DHT22;4206;48.634;9.516;2022-09-02T06:23:58;15.80;99.90
8338;DHT22;4206;48.634;9.516;2022-09-02T06:26:25;16.00;99.90
8338;DHT22;4206;48.634;9.516;2022-09-02T06:28:50;16.30;99.90
8338;DHT22;4206;48.634;9.516;2022-09-02T06:31:19;16.40;99.90
8338;DHT22;4206;48.634;9.516;2022-09-02T06:33:46;16.60;99.90
8338;DHT22;4206;48.634;9.516;2022-09-02T06:36:14;16.80;99.90
8338;DHT22;4206;48.634;9.516;2022-09-02T06:38:43;17.10;99.90
8338;DHT22;4206;48.634;9.516;2022-09-02T06:41:11;17.30;99.90
8338;DHT22;4206;48.634;9.516;2022-09-02T06:43:37;17.60;99.90
8338;DHT22;4206;48.634;9.516;2022-09-02T06:46:04;17.70;99.90
8338;DHT22;4206;48.634;9.516;2022-09-02T06:48:30;17.80;99.90
8338;DHT22;4206;48.634;9.516;2022-09-02T06:50:56;17.90;99.90
8338;DHT22;4206;48.634;9.516;2022-09-02T06:53:22;18.20;99.90
8338;DHT22;4206;48.634;9.516;2022-09-02T06:55:49;18.30;99.90
8338;DHT22;4206;48.634;9.516;2022-09-02T06:58:15;18.50;99.90
8338;DHT22;4206;48.634;9.516;2022-09-02T07:00:41;18.50;99.90
8338;DHT22;4206;48.634;9.516;2022-09-02T07:03:08;18.70;99.90
8338;DHT22;4206;48.634;9.516;2022-09-02T07:06:06;18.80;99.90
8338;DHT22;4206;48.634;9.516;2022-09-02T07:08:38;18.80;99.90
8338;DHT22;4206;48.634;9.516;2022-09-02T07:11:07;19.10;99.90
8338;DHT22;4206;48.634;9.516;2022-09-02T07:13:39;19.20;99.90
8338;DHT22;4206;48.634;9.516;2022-09-02T07:16:05;19.20;99.90
8338;DHT22;4206;48.634;9.516;2022-09-02T07:18:33;19.30;99.90
8338;DHT22;4206;48.634;9.516;2022-09-02T07:20:59;19.30;99.90
8338;DHT22;4206;48.634;9.516;2022-09-02T07:23:25;19.40;99.90
8338;DHT22;4206;48.634;9.516;2022-09-02T07:25:51;19.60;99.90
8338;DHT22;4206;48.634;9.516;2022-09-02T07:28:17;19.60;99.90
8338;DHT22;4206;48.634;9.516;2022-09-02T07:30:43;19.70;99.90
8338;DHT22;4206;48.634;9.516;2022-09-02T07:33:11;19.90;99.90
8338;DHT22;4206;48.634;9.516;2022-09-02T07:35:39;20.00;99.90
8338;DHT22;4206;48.634;9.516;2022-09-02T07:38:06;20.10;99.90
8338;DHT22;4206;48.634;9.516;2022-09-02T07:40:33;20.40;99.90
8338;DHT22;4206;48.634;9.516;2022-09-02T07:43:02;20.60;99.90
8338;DHT22;4206;48.634;9.516;2022-09-02T07:45:29;21.00;99.90
8338;DHT22;4206;48.634;9.516;2022-09-02T07:47:55;21.10;99.90
8338;DHT22;4206;48.634;9.516;2022-09-02T07:50:21;21.30;99.90
8338;DHT22;4206;48.634;9.516;2022-09-02T07:52:46;21.50;99.90
8338;DHT22;4206;48.634;9.516;2022-09-02T07:55:14;21.90;99.90
8338;DHT22;4206;48.634;9.516;2022-09-02T07:57:40;22.30;99.90
8338;DHT22;4206;48.634;9.516;2022-09-02T08:00:06;22.70;99.90
8338;DHT22;4206;48.634;9.516;2022-09-02T08:02:32;23.30;99.90
8338;DHT22;4206;48.634;9.516;2022-09-02T08:04:58;23.80;99.90
8338;DHT22;4206;48.634;9.516;2022-09-02T08:07:24;24.60;99.90
8338;DHT22;4206;48.634;9.516;2022-09-02T08:09:51;24.80;99.90
8338;DHT22;4206;48.634;9.516;2022-09-02T08:12:17;25.70;99.90
8338;DHT22;4206;48.634;9.516;2022-09-02T08:14:43;25.70;99.90
8338;DHT22;4206;48.634;9.516;2022-09-02T08:17:09;26.50;99.90
8338;DHT22;4206;48.634;9.516;2022-09-02T08:19:34;27.10;99.90
8338;DHT22;4206;48.634;9.516;2022-09-02T08:22:03;27.60;98.60
8338;DHT22;4206;48.634;9.516;2022-09-02T08:27:15;26.70;96.40
8338;DHT22;4206;48.634;9.516;2022-09-02T08:29:41;26.50;95.70
8338;DHT22;4206;48.634;9.516;2022-09-02T08:32:07;26.40;95.80
8338;DHT22;4206;48.634;9.516;2022-09-02T08:34:32;26.10;95.80
8338;DHT22;4206;48.634;9.516;2022-09-02T08:36:58;25.90;95.50
8338;DHT22;4206;48.634;9.516;2022-09-02T08:39:24;25.70;96.00
8338;DHT22;4206;48.634;9.516;2022-09-02T08:42:00;26.30;96.30
8338;DHT22;4206;48.634;9.516;2022-09-02T08:44:28;26.80;94.10
8338;DHT22;4206;48.634;9.516;2022-09-02T08:46:57;26.90;94.00
8338;DHT22;4206;48.634;9.516;2022-09-02T08:49:32;27.10;93.00
8338;DHT22;4206;48.634;9.516;2022-09-02T08:52:02;26.90;92.90
8338;DHT22;4206;48.634;9.516;2022-09-02T08:56:58;26.90;93.30
8338;DHT22;4206;48.634;9.516;2022-09-02T08:59:26;27.10;92.70
8338;DHT22;4206;48.634;9.516;2022-09-02T09:10:21;28.70;91.20
8338;DHT22;4206;48.634;9.516;2022-09-02T09:15:32;28.50;89.70
8338;DHT22;4206;48.634;9.516;2022-09-02T09:18:04;28.40;89.50
8338;DHT22;4206;48.634;9.516;2022-09-02T09:20:34;28.10;89.10
8338;DHT22;4206;48.634;9.516;2022-09-02T09:25:40;27.80;89.40
8338;DHT22;4206;48.634;9.516;2022-09-02T09:28:07;28.30;88.80
8338;DHT22;4206;48.634;9.516;2022-09-02T09:30:32;28.80;88.10
8338;DHT22;4206;48.634;9.516;2022-09-02T09:32:59;29.20;86.30
8338;DHT22;4206;48.634;9.516;2022-09-02T09:35:27;29.30;86.00
8338;DHT22;4206;48.634;9.516;2022-09-02T09:37:55;29.50;84.20
8338;DHT22;4206;48.634;9.516;2022-09-02T09:40:24;29.40;82.50
8338;DHT22;4206;48.634;9.516;2022-09-02T09:50:31;28.90;80.90
8338;DHT22;4206;48.634;9.516;2022-09-02T09:53:14;27.90;82.50
8338;DHT22;4206;48.634;9.516;2022-09-02T09:55:56;28.80;82.30
8338;DHT22;4206;48.634;9.516;2022-09-02T09:58:36;28.60;81.50
8338;DHT22;4206;48.634;9.516;2022-09-02T10:01:18;29.00;81.60
8338;DHT22;4206;48.634;9.516;2022-09-02T10:11:25;29.20;78.80
8338;DHT22;4206;48.634;9.516;2022-09-02T10:13:58;29.10;79.20
8338;DHT22;4206;48.634;9.516;2022-09-02T10:19:11;29.40;78.10
8338;DHT22;4206;48.634;9.516;2022-09-02T10:27:28;29.90;79.60
8338;DHT22;4206;48.634;9.516;2022-09-02T10:40:38;30.70;76.90
8338;DHT22;4206;48.634;9.516;2022-09-02T10:43:07;30.80;75.70
8338;DHT22;4206;48.634;9.516;2022-09-02T10:45:36;30.20;75.50
8338;DHT22;4206;48.634;9.516;2022-09-02T10:56:06;30.90;76.10
8338;DHT22;4206;48.634;9.516;2022-09-02T10:58:37;30.70;76.60
8338;DHT22;4206;48.634;9.516;2022-09-02T11:01:06;30.80;75.90
8338;DHT22;4206;48.634;9.516;2022-09-02T11:03:39;30.90;77.10
8338;DHT22;4206;48.634;9.516;2022-09-02T11:06:21;31.10;75.10
8338;DHT22;4206;48.634;9.516;2022-09-02T11:08:53;30.60;75.30
8338;DHT22;4206;48.634;9.516;2022-09-02T11:11:32;30.50;75.90
8338;DHT22;4206;48.634;9.516;2022-09-02T11:14:19;30.70;76.20
8338;DHT22;4206;48.634;9.516;2022-09-02T11:16:51;30.30;75.50
8338;DHT22;4206;48.634;9.516;2022-09-02T11:19:32;30.60;75.50
8338;DHT22;4206;48.634;9.516;2022-09-02T11:22:23;30.60;74.20
8338;DHT22;4206;48.634;9.516;2022-09-02T11:24:54;30.20;78.40
8338;DHT22;4206;48.634;9.516;2022-09-02T11:27:23;30.90;77.00
8338;DHT22;4206;48.634;9.516;2022-09-02T11:30:05;31.50;75.30
8338;DHT22;4206;48.634;9.516;2022-09-02T11:32:57;30.90;74.90
8338;DHT22;4206;48.634;9.516;2022-09-02T11:35:27;30.90;75.60
8338;DHT22;4206;48.634;9.516;2022-09-02T11:46:23;30.10;76.40
8338;DHT22;4206;48.634;9.516;2022-09-02T11:54:35;28.60;78.50
8338;DHT22;4206;48.634;9.516;2022-09-02T11:57:03;28.70;80.90
8338;DHT22;4206;48.634;9.516;2022-09-02T12:07:56;29.70;77.70
8338;DHT22;4206;48.634;9.516;2022-09-02T12:13:30;31.20;75.00
8338;DHT22;4206;48.634;9.516;2022-09-02T12:18:38;31.70;72.80
8338;DHT22;4206;48.634;9.516;2022-09-02T12:21:09;32.00;73.50
8338;DHT22;4206;48.634;9.516;2022-09-02T12:28:45;32.80;70.80
8338;DHT22;4206;48.634;9.516;2022-09-02T12:31:16;32.50;70.50
8338;DHT22;4206;48.634;9.516;2022-09-02T12:33:46;32.60;68.70
8338;DHT22;4206;48.634;9.516;2022-09-02T12:50:22;33.50;68.90
8338;DHT22;4206;48.634;9.516;2022-09-02T12:55:33;33.60;67.90
8338;DHT22;4206;48.634;9.516;2022-09-02T12:58:18;33.90;66.40
8338;DHT22;4206;48.634;9.516;2022-09-02T13:14:42;35.20;60.10
8338;DHT22;4206;48.634;9.516;2022-09-02T13:17:34;35.60;60.00
8338;DHT22;4206;48.634;9.516;2022-09-02T13:26:04;35.60;59.10
8338;DHT22;4206;48.634;9.516;2022-09-02T13:33:39;35.20;58.80
8338;DHT22;4206;48.634;9.516;2022-09-02T13:36:06;34.80;59.80
8338;DHT22;4206;48.634;9.516;2022-09-02T13:38:32;33.80;61.00
8338;DHT22;4206;48.634;9.516;2022-09-02T13:40:58;33.70;61.80
8338;DHT22;4206;48.634;9.516;2022-09-02T13:43:25;32.70;63.20
8338;DHT22;4206;48.634;9.516;2022-09-02T13:45:53;33.50;62.50
8338;DHT22;4206;48.634;9.516;2022-09-02T13:48:28;33.30;61.10
8338;DHT22;4206;48.634;9.516;2022-09-02T13:50:58;33.30;61.40
8338;DHT22;4206;48.634;9.516;2022-09-02T13:53:34;33.50;62.10
8338;DHT22;4206;48.634;9.516;2022-09-02T13:56:02;33.90;60.80
8338;DHT22;4206;48.634;9.516;2022-09-02T13:58:39;34.10;60.70
8338;DHT22;4206;48.634;9.516;2022-09-02T14:01:23;34.50;59.50
8338;DHT22;4206;48.634;9.516;2022-09-02T14:03:50;34.30;58.90
8338;DHT22;4206;48.634;9.516;2022-09-02T14:06:18;34.20;59.20
8338;DHT22;4206;48.634;9.516;2022-09-02T14:08:45;33.50;60.00
8338;DHT22;4206;48.634;9.516;2022-09-02T14:11:15;33.30;61.40
8338;DHT22;4206;48.634;9.516;2022-09-02T14:13:45;33.60;59.70
8338;DHT22;4206;48.634;9.516;2022-09-02T14:16:32;33.50;60.20
8338;DHT22;4206;48.634;9.516;2022-09-02T14:19:22;33.50;60.20
8338;DHT22;4206;48.634;9.516;2022-09-02T14:21:50;33.00;60.20
8338;DHT22;4206;48.634;9.516;2022-09-02T14:24:23;32.60;59.40
8338;DHT22;4206;48.634;9.516;2022-09-02T14:26:52;31.90;59.90
8338;DHT22;4206;48.634;9.516;2022-09-02T14:29:20;31.40;61.20
8338;DHT22;4206;48.634;9.516;2022-09-02T14:32:01;30.60;61.50
8338;DHT22;4206;48.634;9.516;2022-09-02T14:36:57;29.30;64.00
8338;DHT22;4206;48.634;9.516;2022-09-02T14:39:23;28.90;65.70
8338;DHT22;4206;48.634;9.516;2022-09-02T14:41:51;28.60;66.00
8338;DHT22;4206;48.634;9.516;2022-09-02T14:44:27;28.30;66.20
8338;DHT22;4206;48.634;9.516;2022-09-02T14:47:00;27.90;66.90
8338;DHT22;4206;48.634;9.516;2022-09-02T14:49:31;27.70;68.20
8338;DHT22;4206;48.634;9.516;2022-09-02T14:51:59;27.50;67.80
8338;DHT22;4206;48.634;9.516;2022-09-02T14:54:42;27.00;69.50
8338;DHT22;4206;48.634;9.516;2022-09-02T14:57:24;27.00;70.30
8338;DHT22;4206;48.634;9.516;2022-09-02T14:59:56;27.10;69.30
8338;DHT22;4206;48.634;9.516;2022-09-02T15:04:55;26.70;69.90
8338;DHT22;4206;48.634;9.516;2022-09-02T15:07:22;26.50;70.60
8338;DHT22;4206;48.634;9.516;2022-09-02T15:09:48;26.50;70.40
8338;DHT22;4206;48.634;9.516;2022-09-02T15:12:18;26.40;70.00
8338;DHT22;4206;48.634;9.516;2022-09-02T15:14:50;26.30;69.00
8338;DHT22;4206;48.634;9.516;2022-09-02T15:17:18;26.10;69.50
8338;DHT22;4206;48.634;9.516;2022-09-02T15:19:43;25.80;70.40
8338;DHT22;4206;48.634;9.516;2022-09-02T15:22:09;25.80;71.30
8338;DHT22;4206;48.634;9.516;2022-09-02T15:24:35;25.60;72.90
8338;DHT22;4206;48.634;9.516;2022-09-02T15:27:01;25.70;73.20
8338;DHT22;4206;48.634;9.516;2022-09-02T15:29:26;25.50;72.40
8338;DHT22;4206;48.634;9.516;2022-09-02T15:31:53;25.30;73.20
8338;DHT22;4206;48.634;9.516;2022-09-02T15:34:22;25.20;73.10
8338;DHT22;4206;48.634;9.516;2022-09-02T15:36:48;25.20;72.40
8338;DHT22;4206;48.634;9.516;2022-09-02T15:39:14;25.00;72.70
8338;DHT22;4206;48.634;9.516;2022-09-02T15:41:42;24.80;73.80
8338;DHT22;4206;48.634;9.516;2022-09-02T15:44:09;24.80;74.60
8338;DHT22;4206;48.634;9.516;2022-09-02T15:46:36;24.60;73.40
8338;DHT22;4206;48.634;9.516;2022-09-02T15:49:07;24.50;74.10
8338;DHT22;4206;48.634;9.516;2022-09-02T15:51:34;24.40;74.60
8338;DHT22;4206;48.634;9.516;2022-09-02T15:54:02;24.30;74.60
8338;DHT22;4206;48.634;9.516;2022-09-02T15:56:30;24.20;74.80
8338;DHT22;4206;48.634;9.516;2022-09-02T15:59:00;24.10;75.50
8338;DHT22;4206;48.634;9.516;2022-09-02T16:01:27;23.90;75.70
8338;DHT22;4206;48.634;9.516;2022-09-02T16:03:54;23.90;76.10
8338;DHT22;4206;48.634;9.516;2022-09-02T16:06:20;23.80;76.30
8338;DHT22;4206;48.634;9.516;2022-09-02T16:08:46;23.80;76.80
8338;DHT22;4206;48.634;9.516;2022-09-02T16:11:12;23.70;77.40
8338;DHT22;4206;48.634;9.516;2022-09-02T16:13:38;23.80;77.60
8338;DHT22;4206;48.634;9.516;2022-09-02T16:16:06;23.80;76.80
8338;DHT22;4206;48.634;9.516;2022-09-02T16:18:33;23.70;78.00
8338;DHT22;4206;48.634;9.516;2022-09-02T16:20:59;23.60;77.70
8338;DHT22;4206;48.634;9.516;2022-09-02T16:23:26;23.60;78.20
8338;DHT22;4206;48.634;9.516;2022-09-02T16:26:20;23.40;78.00
8338;DHT22;4206;48.634;9.516;2022-09-02T16:28:47;23.20;78.70
8338;DHT22;4206;48.634;9.516;2022-09-02T16:31:15;23.10;79.40
8338;DHT22;4206;48.634;9.516;2022-09-02T16:33:43;23.10;79.40
8338;DHT22;4206;48.634;9.516;2022-09-02T16:36:10;22.90;79.90
8338;DHT22;4206;48.634;9.516;2022-09-02T16:38:36;22.80;80.40
8338;DHT22;4206;48.634;9.516;2022-09-02T16:41:02;22.80;80.40
8338;DHT22;4206;48.634;9.516;2022-09-02T16:43:30;22.70;80.80
8338;DHT22;4206;48.634;9.516;2022-09-02T16:45:58;22.60;81.20
8338;DHT22;4206;48.634;9.516;2022-09-02T16:48:29;22.60;81.30
8338;DHT22;4206;48.634;9.516;2022-09-02T16:51:00;22.60;81.70
8338;DHT22;4206;48.634;9.516;2022-09-02T16:53:26;22.70;81.80
8338;DHT22;4206;48.634;9.516;2022-09-02T16:55:52;22.60;82.30
8338;DHT22;4206;48.634;9.516;2022-09-02T16:58:17;22.70;82.30
8338;DHT22;4206;48.634;9.516;2022-09-02T17:00:44;22.60;82.40
8338;DHT22;4206;48.634;9.516;2022-09-02T17:03:10;22.60;82.50
8338;DHT22;4206;48.634;9.516;2022-09-02T17:05:37;22.50;83.30
8338;DHT22;4206;48.634;9.516;2022-09-02T17:08:04;22.40;84.10
8338;DHT22;4206;48.634;9.516;2022-09-02T17:10:31;22.40;84.70
8338;DHT22;4206;48.634;9.516;2022-09-02T17:12:57;22.30;85.10
8338;DHT22;4206;48.634;9.516;2022-09-02T17:15:24;22.20;85.40
8338;DHT22;4206;48.634;9.516;2022-09-02T17:17:50;22.10;85.70
8338;DHT22;4206;48.634;9.516;2022-09-02T17:20:16;22.00;85.90
8338;DHT22;4206;48.634;9.516;2022-09-02T17:22:42;21.90;86.10
8338;DHT22;4206;48.634;9.516;2022-09-02T17:25:09;21.80;86.40
8338;DHT22;4206;48.634;9.516;2022-09-02T17:27:35;21.70;86.60
8338;DHT22;4206;48.634;9.516;2022-09-02T17:30:03;21.60;86.90
8338;DHT22;4206;48.634;9.516;2022-09-02T17:32:29;21.50;87.20
8338;DHT22;4206;48.634;9.516;2022-09-02T17:34:54;21.40;88.00
8338;DHT22;4206;48.634;9.516;2022-09-02T17:37:20;21.30;88.50
8338;DHT22;4206;48.634;9.516;2022-09-02T17:39:48;21.20;89.40
8338;DHT22;4206;48.634;9.516;2022-09-02T17:42:14;21.10;89.70
8338;DHT22;4206;48.634;9.516;2022-09-02T17:44:40;21.00;90.00
8338;DHT22;4206;48.634;9.516;2022-09-02T17:47:18;20.90;90.20
8338;DHT22;4206;48.634;9.516;2022-09-02T17:49:45;20.80;90.40
8338;DHT22;4206;48.634;9.516;2022-09-02T17:52:15;20.70;90.40
8338;DHT22;4206;48.634;9.516;2022-09-02T17:54:41;20.60;90.60
8338;DHT22;4206;48.634;9.516;2022-09-02T17:57:19;20.60;91.10
8338;DHT22;4206;48.634;9.516;2022-09-02T18:00:03;20.40;90.80
8338;DHT22;4206;48.634;9.516;2022-09-02T18:13:22;19.90;92.70
8338;DHT22;4206;48.634;9.516;2022-09-02T18:18:54;19.70;93.80
8338;DHT22;4206;48.634;9.516;2022-09-02T18:21:26;19.60;93.80
8338;DHT22;4206;48.634;9.516;2022-09-02T18:24:22;19.40;93.60
8338;DHT22;4206;48.634;9.516;2022-09-02T18:27:02;19.40;94.00
8338;DHT22;4206;48.634;9.516;2022-09-02T18:41:15;19.10;95.40
8338;DHT22;4206;48.634;9.516;2022-09-02T18:46:24;19.00;95.20
8338;DHT22;4206;48.634;9.516;2022-09-02T18:48:51;19.00;95.10
8338;DHT22;4206;48.634;9.516;2022-09-02T18:51:26;18.90;95.30
8338;DHT22;4206;48.634;9.516;2022-09-02T18:53:57;18.90;96.00
8338;DHT22;4206;48.634;9.516;2022-09-02T18:56:28;18.90;95.90
8338;DHT22;4206;48.634;9.516;2022-09-02T18:58:58;18.80;95.70
8338;DHT22;4206;48.634;9.516;2022-09-02T19:01:31;18.90;95.80
8338;DHT22;4206;48.634;9.516;2022-09-02T19:04:00;18.80;95.80